Time;durP1;ratioP1;P1;durP2;ratioP2;P2;SDS_P1;SDS_P2;PMS_P1;PMS_P2;Temp;Humidity;BMP_temperature;BMP_pressure;BME280_temperature;BME280_humidity;BME280_pressure;Samples;Min_cycle;Max_cycle;Signal;HPM_P1;HPM_P2
2022/03/02 00:01:56;;;;;;;35.20;24.97;;;6.70;99.90;;;;;;5029065;28;39999;-79
2022/03/02 00:04:23;;;;;;;36.47;25.13;;;6.60;99.90;;;;;;5012747;28;39100;-79
2022/03/02 00:06:49;;;;;;;39.03;24.97;;;6.60;99.90;;;;;;5017708;28;39129;-79
2022/03/02 00:09:15;;;;;;;36.13;23.73;;;6.50;99.90;;;;;;5011006;28;39161;-79
2022/03/02 00:11:41;;;;;;;36.50;24.90;;;6.50;99.90;;;;;;5017283;28;37419;-79
2022/03/02 00:14:07;;;;;;;36.67;25.63;;;6.40;99.90;;;;;;5021022;28;39553;-79
2022/03/02 00:16:35;;;;;;;40.20;25.73;;;6.40;99.90;;;;;;5033027;28;37976;-79
2022/03/02 00:19:02;;;;;;;35.33;25.37;;;6.30;99.90;;;;;;5014558;28;40684;-79
2022/03/02 00:21:28;;;;;;;34.73;23.73;;;6.30;99.90;;;;;;5034526;28;42478;-79
2022/03/02 00:23:54;;;;;;;35.10;24.47;;;6.30;99.90;;;;;;5013383;28;40211;-79
2022/03/02 00:26:21;;;;;;;39.30;25.47;;;6.30;99.90;;;;;;5009340;28;37969;-79
2022/03/02 00:28:47;;;;;;;42.23;27.27;;;6.40;99.90;;;;;;5011990;28;40313;-79
2022/03/02 00:31:13;;;;;;;36.93;25.80;;;6.40;99.90;;;;;;5026637;28;37697;-78
2022/03/02 00:33:39;;;;;;;40.87;25.70;;;6.50;99.90;;;;;;5055751;28;37977;-79
2022/03/02 00:36:06;;;;;;;39.33;25.27;;;6.50;99.90;;;;;;5059612;28;38496;-79
2022/03/02 00:38:32;;;;;;;38.20;26.13;;;6.50;99.90;;;;;;5058639;28;39392;-79
2022/03/02 00:40:58;;;;;;;36.90;24.83;;;6.50;99.90;;;;;;5055516;28;38694;-79
2022/03/02 00:43:24;;;;;;;34.03;23.57;;;6.50;99.90;;;;;;5060102;28;39484;-79
2022/03/02 00:45:51;;;;;;;35.43;24.37;;;6.50;99.90;;;;;;5053792;28;37536;-79
2022/03/02 00:48:17;;;;;;;37.47;25.70;;;6.50;99.90;;;;;;5036207;28;39361;-79
2022/03/02 00:50:44;;;;;;;35.27;25.10;;;6.50;99.90;;;;;;5032295;28;39688;-79
2022/03/02 00:53:10;;;;;;;35.23;23.50;;;6.50;99.90;;;;;;5036163;28;39175;-79
2022/03/02 00:55:37;;;;;;;40.30;25.33;;;6.50;99.90;;;;;;5039025;28;37946;-79
2022/03/02 00:58:05;;;;;;;38.57;25.87;;;6.50;99.90;;;;;;5034555;28;40318;-78
2022/03/02 01:00:31;;;;;;;35.03;24.97;;;6.50;99.90;;;;;;5051256;28;38419;-79
2022/03/02 01:02:58;;;;;;;35.30;24.60;;;6.50;99.90;;;;;;5055432;28;38357;-79
2022/03/02 01:05:24;;;;;;;38.67;25.30;;;6.50;99.90;;;;;;5039800;28;38162;-79
2022/03/02 01:07:50;;;;;;;36.67;24.50;;;6.50;99.90;;;;;;5032670;28;39164;-79
2022/03/02 01:10:18;;;;;;;39.60;25.57;;;6.50;99.90;;;;;;5059384;28;39347;-79
2022/03/02 01:12:44;;;;;;;40.00;25.17;;;6.50;99.90;;;;;;5033576;28;38831;-79
2022/03/02 01:15:11;;;;;;;36.60;23.83;;;6.50;99.90;;;;;;5036425;28;38187;-78
2022/03/02 01:17:38;;;;;;;35.17;24.10;;;6.50;99.90;;;;;;5021674;28;39992;-79
2022/03/02 01:20:06;;;;;;;32.33;23.17;;;6.50;99.90;;;;;;5055085;28;38582;-79
2022/03/02 01:22:33;;;;;;;41.10;25.93;;;6.50;99.90;;;;;;5036932;28;38143;-79
2022/03/02 01:24:59;;;;;;;37.93;23.93;;;6.50;99.90;;;;;;5038259;28;37064;-79
2022/03/02 01:27:25;;;;;;;37.20;24.27;;;6.50;99.90;;;;;;5032958;28;39512;-79
2022/03/02 01:29:51;;;;;;;37.33;25.13;;;6.60;99.90;;;;;;5056266;28;39084;-79
2022/03/02 01:32:18;;;;;;;35.63;23.90;;;6.60;99.90;;;;;;5044186;28;38446;-78
2022/03/02 01:34:44;;;;;;;35.87;24.57;;;6.50;99.90;;;;;;5031178;28;37100;-78
2022/03/02 01:37:11;;;;;;;38.90;25.50;;;6.50;99.90;;;;;;5019794;28;38485;-79
2022/03/02 01:39:38;;;;;;;38.73;25.33;;;6.50;99.90;;;;;;5019263;28;37516;-78
2022/03/02 01:42:05;;;;;;;38.37;25.13;;;6.50;99.90;;;;;;5032219;28;38460;-78
2022/03/02 01:44:35;;;;;;;35.97;25.67;;;6.50;99.90;;;;;;5036013;28;38082;-79
2022/03/02 01:47:03;;;;;;;34.73;24.00;;;6.40;99.90;;;;;;5014287;28;39594;-78
2022/03/02 01:49:30;;;;;;;39.63;25.77;;;6.40;99.90;;;;;;5031850;28;38935;-79
2022/03/02 01:51:56;;;;;;;38.60;25.57;;;6.40;99.90;;;;;;5034466;28;39016;-79
2022/03/02 01:54:23;;;;;;;35.10;24.80;;;6.40;99.90;;;;;;5034616;28;39389;-78
2022/03/02 01:56:49;;;;;;;38.20;25.13;;;6.40;99.90;;;;;;5015933;28;38181;-79
2022/03/02 01:59:15;;;;;;;38.53;25.37;;;6.40;99.90;;;;;;5016800;28;38857;-79
2022/03/02 02:01:42;;;;;;;35.27;24.17;;;6.40;99.90;;;;;;5020072;28;39123;-79
2022/03/02 02:04:08;;;;;;;33.77;24.53;;;6.40;99.90;;;;;;5036101;28;36977;-78
2022/03/02 02:06:35;;;;;;;37.23;24.70;;;6.30;99.90;;;;;;5038444;28;38735;-79
2022/03/02 02:09:04;;;;;;;35.00;24.13;;;6.30;99.90;;;;;;5023510;28;40523;-78
2022/03/02 02:11:32;;;;;;;36.00;25.37;;;6.20;99.90;;;;;;5025627;28;47121;-79
2022/03/02 02:13:58;;;;;;;36.53;25.67;;;6.20;99.90;;;;;;5017648;28;37178;-79
2022/03/02 02:16:25;;;;;;;42.27;25.60;;;6.20;99.90;;;;;;5034613;28;38944;-79
2022/03/02 02:18:54;;;;;;;41.17;23.53;;;6.10;99.90;;;;;;5036155;28;39035;-78
2022/03/02 02:21:21;;;;;;;34.53;23.43;;;6.10;99.90;;;;;;5034336;28;39416;-78
2022/03/02 02:23:48;;;;;;;38.80;25.47;;;6.10;99.90;;;;;;5037660;28;37961;-79
2022/03/02 02:26:14;;;;;;;40.43;26.37;;;6.10;99.90;;;;;;5037537;28;39486;-79
2022/03/02 02:28:40;;;;;;;38.27;25.60;;;6.00;99.90;;;;;;5032573;28;38831;-79
2022/03/02 02:31:07;;;;;;;36.33;24.60;;;6.00;99.90;;;;;;5022400;28;38268;-78
2022/03/02 02:33:33;;;;;;;39.50;25.67;;;6.00;99.90;;;;;;5035005;28;37600;-79
2022/03/02 02:36:00;;;;;;;37.43;25.20;;;5.90;99.90;;;;;;5039437;28;37790;-78
2022/03/02 02:38:26;;;;;;;44.80;24.87;;;5.90;99.90;;;;;;5040105;28;37424;-78
2022/03/02 02:40:53;;;;;;;36.83;23.80;;;5.90;99.90;;;;;;5055571;28;38099;-79
2022/03/02 02:43:22;;;;;;;41.43;25.57;;;5.90;99.90;;;;;;5038528;28;36435;-78
2022/03/02 02:45:48;;;;;;;38.13;25.63;;;5.90;99.90;;;;;;5035792;28;40508;-79
2022/03/02 02:48:14;;;;;;;36.30;25.30;;;5.80;99.90;;;;;;5038173;28;37494;-79
2022/03/02 02:50:41;;;;;;;38.53;25.03;;;5.70;99.90;;;;;;5043080;28;39070;-78
2022/03/02 02:53:09;;;;;;;40.80;24.83;;;5.70;99.90;;;;;;5055199;28;37594;-78
2022/03/02 02:55:37;;;;;;;36.60;25.00;;;5.70;99.90;;;;;;5035118;28;38724;-78
2022/03/02 02:58:05;;;;;;;38.20;25.90;;;5.70;99.90;;;;;;5041907;28;38704;-78
2022/03/02 03:00:34;;;;;;;36.40;24.40;;;5.60;99.90;;;;;;5044398;28;47123;-79
2022/03/02 03:03:01;;;;;;;34.20;24.13;;;5.60;99.90;;;;;;5057422;28;37627;-79
2022/03/02 03:05:29;;;;;;;39.57;25.43;;;5.50;99.90;;;;;;5041442;28;47473;-79
2022/03/02 03:07:57;;;;;;;39.40;25.60;;;5.50;99.90;;;;;;5064316;28;39883;-78
2022/03/02 03:10:25;;;;;;;38.30;25.43;;;5.40;99.90;;;;;;5053690;28;38798;-78
2022/03/02 03:12:51;;;;;;;39.27;24.93;;;5.40;99.90;;;;;;5053771;28;35492;-79
2022/03/02 03:15:19;;;;;;;37.43;25.17;;;5.40;99.90;;;;;;5053006;28;38915;-78
2022/03/02 03:17:46;;;;;;;42.67;24.73;;;5.30;99.90;;;;;;5034041;28;40192;-78
2022/03/02 03:20:17;;;;;;;40.67;26.03;;;5.30;99.90;;;;;;5024378;28;37246;-78
2022/03/02 03:22:43;;;;;;;37.10;24.77;;;5.30;99.90;;;;;;5035668;28;39272;-78
2022/03/02 03:25:10;;;;;;;41.10;27.23;;;5.20;99.90;;;;;;5055216;28;38423;-78
2022/03/02 03:27:37;;;;;;;37.60;25.27;;;5.20;99.90;;;;;;5037337;28;39249;-78
2022/03/02 03:30:08;;;;;;;36.97;24.27;;;5.20;99.90;;;;;;5031761;28;41374;-78
2022/03/02 03:32:34;;;;;;;41.70;25.20;;;5.10;99.90;;;;;;5033121;28;36621;-77
2022/03/02 03:35:02;;;;;;;38.47;25.80;;;5.10;99.90;;;;;;5015681;28;37673;-78
2022/03/02 03:37:28;;;;;;;37.70;24.30;;;5.10;99.90;;;;;;5015009;28;47344;-78
2022/03/02 03:39:54;;;;;;;39.97;26.37;;;5.00;99.90;;;;;;5035149;28;38402;-78
2022/03/02 03:42:20;;;;;;;36.77;25.00;;;4.90;99.90;;;;;;5016977;28;36375;-78
2022/03/02 03:44:46;;;;;;;38.17;25.73;;;4.90;99.90;;;;;;5031401;28;39755;-78
2022/03/02 03:47:12;;;;;;;39.67;25.60;;;4.90;99.90;;;;;;5035000;28;38909;-79
2022/03/02 03:49:38;;;;;;;37.50;26.03;;;4.80;99.90;;;;;;5036083;28;37907;-78
2022/03/02 03:52:05;;;;;;;41.37;26.40;;;4.80;99.90;;;;;;5032108;28;37337;-78
2022/03/02 03:54:31;;;;;;;40.23;26.07;;;4.80;99.90;;;;;;5015401;28;38618;-78
2022/03/02 03:56:57;;;;;;;37.70;25.17;;;4.80;99.90;;;;;;5017077;28;39362;-78
2022/03/02 03:59:23;;;;;;;37.97;24.13;;;4.90;99.90;;;;;;5033603;28;39340;-78
2022/03/02 04:01:49;;;;;;;38.13;24.37;;;4.90;99.90;;;;;;5017172;28;38215;-78
2022/03/02 04:04:15;;;;;;;41.20;24.80;;;4.90;99.90;;;;;;5032919;28;38741;-78
2022/03/02 04:06:41;;;;;;;39.30;24.57;;;4.90;99.90;;;;;;5018272;28;38339;-78
2022/03/02 04:09:07;;;;;;;37.53;24.20;;;4.90;99.90;;;;;;5032339;28;39238;-78
2022/03/02 04:11:33;;;;;;;39.17;25.20;;;4.90;99.90;;;;;;5018075;28;37328;-78
2022/03/02 04:13:59;;;;;;;37.93;24.43;;;4.90;99.90;;;;;;5018634;28;37671;-78
2022/03/02 04:16:26;;;;;;;38.40;24.43;;;5.00;99.90;;;;;;5033002;28;38739;-78
2022/03/02 04:18:52;;;;;;;40.23;24.93;;;5.00;99.90;;;;;;5036214;28;38410;-78
2022/03/02 04:21:18;;;;;;;35.83;23.93;;;5.00;99.90;;;;;;5031307;28;37276;-78
2022/03/02 04:23:44;;;;;;;37.50;24.07;;;4.90;99.90;;;;;;5032959;28;38957;-78
2022/03/02 04:26:11;;;;;;;39.60;23.97;;;4.90;99.90;;;;;;5016588;28;41935;-78
2022/03/02 04:28:37;;;;;;;38.73;25.27;;;4.90;99.90;;;;;;5011480;28;38211;-79
2022/03/02 04:31:04;;;;;;;37.07;23.70;;;4.90;99.90;;;;;;5010808;28;38080;-78
2022/03/02 04:33:30;;;;;;;36.53;23.77;;;4.90;99.90;;;;;;5035146;28;40403;-78
2022/03/02 04:35:56;;;;;;;39.00;25.00;;;4.90;99.90;;;;;;5040009;28;41729;-78
2022/03/02 04:38:22;;;;;;;42.03;23.30;;;4.80;99.90;;;;;;5041259;28;39740;-78
2022/03/02 04:40:49;;;;;;;36.17;24.57;;;4.80;99.90;;;;;;5045799;28;41317;-78
2022/03/02 04:43:17;;;;;;;37.23;24.63;;;4.80;99.90;;;;;;5036022;28;38993;-78
2022/03/02 04:45:43;;;;;;;38.83;24.37;;;4.70;99.90;;;;;;5038554;28;40613;-78
2022/03/02 04:48:09;;;;;;;34.07;23.17;;;4.70;99.90;;;;;;5036613;28;37305;-78
2022/03/02 04:50:36;;;;;;;35.60;22.97;;;4.70;99.90;;;;;;5034595;28;36011;-78
2022/03/02 04:53:03;;;;;;;39.20;25.63;;;4.70;99.90;;;;;;5038559;28;38712;-77
2022/03/02 04:55:29;;;;;;;34.00;22.80;;;4.70;99.90;;;;;;5039639;28;38355;-78
2022/03/02 04:57:58;;;;;;;32.23;22.23;;;4.80;99.90;;;;;;5033584;28;39065;-78
2022/03/02 05:00:30;;;;;;;38.53;23.90;;;4.80;99.90;;;;;;5036055;28;39082;-78
2022/03/02 05:02:57;;;;;;;34.25;22.85;;;4.70;99.90;;;;;;5034514;28;39565;-78
2022/03/02 05:05:24;;;;;;;37.10;24.47;;;4.70;99.90;;;;;;5030500;28;39481;-78
2022/03/02 05:07:51;;;;;;;38.70;24.23;;;4.70;99.90;;;;;;5038742;28;38566;-78
2022/03/02 05:10:20;;;;;;;33.43;22.00;;;4.70;99.90;;;;;;5037626;28;39236;-78
2022/03/02 05:12:47;;;;;;;34.90;22.53;;;4.70;99.90;;;;;;5039863;28;38509;-78
2022/03/02 05:15:14;;;;;;;38.80;23.17;;;4.60;99.90;;;;;;5046237;28;40859;-78
2022/03/02 05:17:42;;;;;;;35.17;22.67;;;4.60;99.90;;;;;;5033785;28;38490;-78
2022/03/02 05:20:09;;;;;;;36.50;23.27;;;4.60;99.90;;;;;;5041734;28;37566;-78
2022/03/02 05:22:36;;;;;;;38.27;22.67;;;4.60;99.90;;;;;;5033620;28;40437;-78
2022/03/02 05:25:03;;;;;;;35.53;22.90;;;4.60;99.90;;;;;;5038232;28;39177;-77
2022/03/02 05:27:30;;;;;;;37.20;23.33;;;4.60;99.90;;;;;;5038000;28;39210;-78
2022/03/02 05:29:56;;;;;;;37.80;24.00;;;4.60;99.90;;;;;;5038703;28;37005;-78
2022/03/02 05:32:22;;;;;;;38.13;23.60;;;4.70;99.90;;;;;;5048812;28;40193;-78
2022/03/02 05:34:48;;;;;;;37.50;22.60;;;4.70;99.90;;;;;;5041363;28;38256;-78
2022/03/02 05:37:14;;;;;;;34.13;22.43;;;4.70;99.90;;;;;;5044774;28;39320;-78
2022/03/02 05:39:40;;;;;;;38.57;23.23;;;4.70;99.90;;;;;;5048146;28;39257;-78
2022/03/02 05:42:07;;;;;;;33.83;22.93;;;4.70;99.90;;;;;;5043407;28;40065;-78
2022/03/02 05:44:33;;;;;;;35.50;23.37;;;4.70;99.90;;;;;;5053204;28;39763;-78
2022/03/02 05:46:59;;;;;;;40.27;23.13;;;4.80;99.90;;;;;;5063165;28;38157;-78
2022/03/02 05:49:25;;;;;;;36.40;22.77;;;4.80;99.90;;;;;;5059137;28;37484;-78
2022/03/02 05:51:51;;;;;;;35.80;21.93;;;4.70;99.90;;;;;;5075254;28;39576;-78
2022/03/02 05:54:18;;;;;;;35.80;22.97;;;4.70;99.90;;;;;;5064062;28;38528;-78
2022/03/02 05:56:44;;;;;;;35.10;23.20;;;4.70;99.90;;;;;;5061046;28;38190;-78
2022/03/02 05:59:12;;;;;;;35.43;23.23;;;4.70;99.90;;;;;;5061285;28;36118;-78
2022/03/02 06:01:39;;;;;;;34.73;22.30;;;4.70;99.90;;;;;;5039998;28;47218;-78
2022/03/02 06:04:06;;;;;;;31.73;21.27;;;4.70;99.90;;;;;;5050966;28;39517;-77
2022/03/02 06:06:34;;;;;;;35.10;22.60;;;4.70;99.90;;;;;;5054190;28;38494;-78
2022/03/02 06:09:02;;;;;;;38.97;23.57;;;4.70;99.90;;;;;;5058991;28;37462;-78
2022/03/02 06:11:29;;;;;;;36.43;23.50;;;4.70;99.90;;;;;;5060763;28;49188;-77
2022/03/02 06:13:55;;;;;;;37.90;23.27;;;4.70;99.90;;;;;;5060639;28;39450;-78
2022/03/02 06:16:21;;;;;;;36.60;22.17;;;4.70;99.90;;;;;;5047493;28;37202;-79
2022/03/02 06:18:48;;;;;;;35.83;22.13;;;4.70;99.90;;;;;;5046915;28;38329;-78
2022/03/02 06:21:25;;;;;;;36.17;22.20;;;4.70;99.90;;;;;;5042762;28;39549;-78
2022/03/02 06:23:53;;;;;;;34.00;21.73;;;4.80;99.90;;;;;;5048165;28;39463;-78
2022/03/02 06:26:22;;;;;;;36.67;22.70;;;4.80;99.90;;;;;;5072854;28;39489;-77
2022/03/02 06:28:49;;;;;;;35.87;23.03;;;4.80;99.90;;;;;;5044704;28;38331;-78
2022/03/02 06:31:15;;;;;;;37.13;22.77;;;4.80;99.90;;;;;;5048732;28;37724;-78
2022/03/02 06:33:42;;;;;;;32.63;20.93;;;4.80;99.90;;;;;;5060236;28;38670;-78
2022/03/02 06:36:08;;;;;;;33.80;22.03;;;4.80;99.90;;;;;;5053356;28;38599;-77
2022/03/02 06:38:34;;;;;;;35.60;21.80;;;4.80;99.90;;;;;;5040900;28;39269;-78
2022/03/02 06:41:12;;;;;;;35.40;21.93;;;4.90;99.90;;;;;;5041669;28;38524;-77
2022/03/02 06:43:46;;;;;;;32.00;21.70;;;4.80;99.90;;;;;;5074595;28;48536;-78
2022/03/02 06:46:23;;;;;;;36.33;22.43;;;4.80;99.90;;;;;;5059252;28;39144;-78
2022/03/02 06:48:55;;;;;;;38.50;21.67;;;4.80;99.90;;;;;;5056946;28;37406;-78
2022/03/02 06:51:22;;;;;;;31.25;20.88;;;4.80;99.90;;;;;;5042480;28;37480;-78
2022/03/02 06:53:51;;;;;;;36.20;21.10;;;4.80;99.90;;;;;;5044658;28;42443;-78
2022/03/02 06:56:21;;;;;;;31.83;20.70;;;4.80;99.90;;;;;;5041727;28;37841;-77
2022/03/02 06:59:00;;;;;;;32.87;21.13;;;4.80;99.90;;;;;;5062338;28;38923;-78
2022/03/02 07:01:32;;;;;;;36.83;21.77;;;4.80;99.90;;;;;;5062213;28;39185;-78
2022/03/02 07:03:59;;;;;;;36.95;21.15;;;4.90;99.90;;;;;;5055929;28;39292;-78
2022/03/02 07:06:27;;;;;;;30.93;20.93;;;5.00;99.90;;;;;;5041324;28;38828;-77
2022/03/02 07:08:54;;;;;;;34.43;21.33;;;5.10;99.90;;;;;;5066062;28;37130;-77
2022/03/02 07:11:21;;;;;;;30.90;20.53;;;5.10;99.90;;;;;;5058510;28;38997;-77
2022/03/02 07:13:49;;;;;;;33.53;21.53;;;5.20;99.90;;;;;;5045067;28;40499;-77
2022/03/02 07:16:18;;;;;;;32.20;20.00;;;5.30;99.90;;;;;;5056433;28;39607;-77
2022/03/02 07:18:44;;;;;;;31.20;20.03;;;5.40;99.90;;;;;;5054713;28;37487;-77
2022/03/02 07:21:12;;;;;;;32.00;20.27;;;5.50;99.90;;;;;;5033897;28;37732;-78
2022/03/02 07:23:54;;;;;;;31.57;19.40;;;5.60;99.90;;;;;;5038622;28;38110;-78
2022/03/02 07:26:23;;;;;;;32.33;20.23;;;5.60;99.90;;;;;;5043485;28;39346;-78
2022/03/02 07:28:50;;;;;;;30.70;19.03;;;5.70;99.90;;;;;;5031217;28;36731;-78
2022/03/02 07:31:20;;;;;;;30.10;19.20;;;5.80;99.90;;;;;;5057098;28;39527;-78
2022/03/02 07:33:47;;;;;;;28.77;19.27;;;5.80;99.90;;;;;;5042098;28;39424;-78
2022/03/02 07:36:17;;;;;;;32.30;19.30;;;5.90;99.90;;;;;;5042521;28;38740;-78
2022/03/02 07:38:44;;;;;;;29.30;18.63;;;6.00;99.90;;;;;;5061619;28;36873;-78
2022/03/02 07:41:10;;;;;;;30.37;18.70;;;6.00;99.90;;;;;;5024372;28;39068;-78
2022/03/02 07:43:38;;;;;;;29.83;18.73;;;6.00;99.90;;;;;;5058809;28;38402;-78
2022/03/02 07:46:09;;;;;;;29.47;18.13;;;6.00;99.90;;;;;;5058370;28;39444;-78
2022/03/02 07:48:37;;;;;;;31.37;19.33;;;6.00;99.90;;;;;;5065894;28;38470;-78
2022/03/02 07:51:06;;;;;;;28.87;19.53;;;6.10;99.90;;;;;;5062335;28;38562;-78
2022/03/02 07:53:40;;;;;;;31.87;19.03;;;6.10;99.90;;;;;;5058004;28;38859;-78
2022/03/02 07:56:09;;;;;;;29.30;18.53;;;6.20;99.90;;;;;;5056558;28;38522;-78
2022/03/02 07:58:39;;;;;;;29.90;18.50;;;6.30;99.90;;;;;;5039974;28;37203;-78
2022/03/02 08:01:12;;;;;;;29.23;18.13;;;6.30;99.90;;;;;;5059160;28;39851;-77
2022/03/02 08:03:39;;;;;;;32.93;19.27;;;6.30;99.90;;;;;;5049508;28;40365;-77
2022/03/02 08:06:07;;;;;;;29.77;18.07;;;6.40;99.90;;;;;;5063297;28;40039;-78
2022/03/02 08:08:37;;;;;;;32.23;18.50;;;6.40;99.90;;;;;;5042857;28;38223;-77
2022/03/02 08:11:04;;;;;;;24.83;16.97;;;6.40;99.90;;;;;;5045920;28;38966;-79
2022/03/02 08:13:32;;;;;;;30.43;18.17;;;6.30;99.90;;;;;;5057409;28;36479;-77
2022/03/02 08:15:58;;;;;;;29.93;17.90;;;6.40;99.90;;;;;;5058728;28;37884;-77
2022/03/02 08:18:24;;;;;;;29.07;17.20;;;6.40;99.90;;;;;;5064250;28;37899;-77
2022/03/02 08:20:52;;;;;;;26.13;17.20;;;6.40;99.90;;;;;;5048823;28;38258;-77
2022/03/02 08:23:19;;;;;;;26.53;17.03;;;6.40;99.90;;;;;;5062942;28;38727;-77
2022/03/02 08:25:50;;;;;;;26.63;16.93;;;6.50;99.90;;;;;;5048543;28;37392;-77
2022/03/02 08:28:17;;;;;;;26.90;16.30;;;6.50;99.90;;;;;;5059515;28;37019;-77
2022/03/02 08:30:45;;;;;;;28.30;17.00;;;6.50;99.90;;;;;;5064135;28;38744;-78
2022/03/02 08:33:16;;;;;;;26.20;16.77;;;6.60;99.90;;;;;;5058227;28;38752;-78
2022/03/02 08:35:42;;;;;;;27.40;15.50;;;6.60;99.90;;;;;;5042433;28;39006;-78
2022/03/02 08:38:10;;;;;;;25.27;15.63;;;6.60;99.90;;;;;;5040244;28;36518;-78
2022/03/02 08:40:38;;;;;;;24.33;15.77;;;6.60;99.90;;;;;;5065090;28;39421;-78
2022/03/02 08:43:06;;;;;;;29.57;17.00;;;6.70;99.90;;;;;;5061041;28;38818;-79
2022/03/02 08:45:32;;;;;;;26.67;16.93;;;6.70;99.90;;;;;;5043877;28;37621;-80
2022/03/02 08:48:05;;;;;;;24.60;15.57;;;6.80;99.90;;;;;;5051053;28;36298;-79
2022/03/02 08:50:31;;;;;;;30.90;15.23;;;6.80;99.90;;;;;;5053430;28;47199;-79
2022/03/02 08:52:58;;;;;;;35.70;16.90;;;6.90;99.90;;;;;;5060742;28;37723;-78
2022/03/02 08:55:30;;;;;;;30.67;16.10;;;6.90;99.90;;;;;;5041395;28;39229;-79
2022/03/02 08:57:57;;;;;;;29.03;15.67;;;7.00;99.90;;;;;;5065242;28;37684;-79
2022/03/02 09:00:23;;;;;;;26.30;16.13;;;7.00;99.90;;;;;;5057477;28;38848;-79
2022/03/02 09:02:52;;;;;;;25.93;15.13;;;7.00;99.90;;;;;;5055667;28;39797;-79
2022/03/02 09:05:19;;;;;;;24.50;15.07;;;7.00;99.90;;;;;;5051601;28;37966;-79
2022/03/02 09:07:45;;;;;;;21.60;14.30;;;7.10;99.90;;;;;;5064005;28;37993;-79
2022/03/02 09:10:12;;;;;;;25.93;15.17;;;7.10;99.90;;;;;;5053922;28;38737;-79
2022/03/02 09:12:42;;;;;;;23.37;15.00;;;7.20;99.90;;;;;;5075110;28;39811;-79
2022/03/02 09:15:09;;;;;;;26.53;15.93;;;7.20;99.90;;;;;;5041423;28;39447;-78
2022/03/02 09:17:35;;;;;;;22.43;15.13;;;7.20;99.90;;;;;;5039840;28;36251;-79
2022/03/02 09:20:05;;;;;;;21.20;14.57;;;7.30;99.90;;;;;;5041493;28;38643;-78
2022/03/02 09:22:32;;;;;;;23.70;14.83;;;7.30;99.90;;;;;;5043237;28;39253;-79
2022/03/02 09:24:58;;;;;;;23.77;14.63;;;7.40;99.90;;;;;;5056762;28;38411;-79
2022/03/02 09:27:30;;;;;;;26.70;13.97;;;7.40;99.90;;;;;;5057842;28;37498;-79
2022/03/02 09:29:58;;;;;;;23.53;13.93;;;7.40;99.90;;;;;;5038364;28;38305;-78
2022/03/02 09:32:25;;;;;;;22.87;14.53;;;7.50;99.90;;;;;;5037333;28;40353;-79
2022/03/02 09:34:55;;;;;;;21.13;13.50;;;7.60;99.90;;;;;;5057647;28;38591;-79
2022/03/02 09:37:23;;;;;;;20.73;13.27;;;7.70;99.90;;;;;;5033712;28;37968;-79
2022/03/02 09:39:51;;;;;;;21.77;13.80;;;7.70;99.90;;;;;;5055795;28;38819;-78
2022/03/02 09:42:30;;;;;;;20.77;13.03;;;7.80;99.90;;;;;;5031883;28;40280;-79
2022/03/02 09:45:09;;;;;;;22.03;13.17;;;7.90;99.90;;;;;;5027355;28;37566;-79
2022/03/02 09:47:48;;;;;;;22.73;14.20;;;8.00;99.90;;;;;;5039790;28;47939;-79
2022/03/02 09:50:17;;;;;;;25.93;13.57;;;8.00;99.90;;;;;;5050224;28;38458;-79
2022/03/02 09:52:45;;;;;;;23.67;13.60;;;8.10;99.90;;;;;;5050649;28;37963;-79
2022/03/02 09:55:14;;;;;;;20.80;13.53;;;8.10;99.90;;;;;;5052336;28;38441;-78
2022/03/02 09:57:44;;;;;;;23.03;13.70;;;8.20;99.90;;;;;;5061864;28;38428;-79
2022/03/02 10:00:12;;;;;;;22.67;13.63;;;8.30;99.90;;;;;;5039150;28;39845;-79
2022/03/02 10:02:46;;;;;;;19.87;12.70;;;8.40;99.90;;;;;;5062604;28;38972;-80
2022/03/02 10:05:20;;;;;;;26.20;14.60;;;8.40;99.90;;;;;;5045972;28;37616;-79
2022/03/02 10:07:59;;;;;;;22.87;15.37;;;8.50;99.90;;;;;;5051597;28;37971;-81
2022/03/02 10:10:28;;;;;;;23.23;13.47;;;8.80;99.90;;;;;;5060889;28;39879;-80
2022/03/02 10:13:08;;;;;;;24.43;13.40;;;8.80;99.90;;;;;;5057371;28;39226;-79
2022/03/02 10:15:35;;;;;;;22.00;12.90;;;8.90;99.90;;;;;;5045813;28;47534;-80
2022/03/02 10:18:03;;;;;;;21.70;13.20;;;9.10;99.90;;;;;;5044561;28;37134;-79
2022/03/02 10:20:38;;;;;;;22.97;13.60;;;9.10;99.90;;;;;;5043361;28;39161;-80
2022/03/02 10:23:32;;;;;;;18.13;12.47;;;9.10;99.90;;;;;;5047654;28;40198;-79
2022/03/02 10:26:19;;;;;;;22.63;14.27;;;9.30;99.90;;;;;;5064611;28;38609;-79
2022/03/02 10:29:29;;;;;;;24.27;14.53;;;9.40;99.90;;;;;;5056839;28;49285;-79
2022/03/02 10:32:08;;;;;;;22.20;13.77;;;9.50;99.90;;;;;;5034121;28;47274;-79
2022/03/02 10:34:46;;;;;;;26.20;14.60;;;9.50;99.90;;;;;;5066682;28;48853;-79
2022/03/02 10:37:36;;;;;;;20.77;13.07;;;9.60;99.90;;;;;;5060143;28;38804;-79
2022/03/02 10:40:18;;;;;;;23.00;14.30;;;9.60;99.90;;;;;;5059293;28;37848;-75
2022/03/02 10:42:56;;;;;;;18.73;13.37;;;9.70;99.90;;;;;;5042416;28;39907;-77
2022/03/02 10:45:25;;;;;;;21.50;13.93;;;9.80;99.90;;;;;;5037810;28;39356;-77
2022/03/02 10:48:07;;;;;;;22.77;14.17;;;10.00;99.90;;;;;;5064576;28;39527;-77
2022/03/02 10:50:35;;;;;;;22.55;13.85;;;10.10;99.90;;;;;;5060447;28;47162;-76
2022/03/02 10:53:07;;;;;;;23.87;14.37;;;10.30;99.90;;;;;;5068287;28;41066;-77
2022/03/02 10:55:35;;;;;;;22.33;14.52;;;10.50;99.90;;;;;;5045562;28;47422;-77
2022/03/02 10:58:04;;;;;;;21.37;14.53;;;10.60;99.90;;;;;;5065765;28;38186;-77
2022/03/02 11:00:31;;;;;;;23.80;15.07;;;10.60;99.90;;;;;;5065211;28;48876;-76
2022/03/02 11:02:59;;;;;;;23.97;14.43;;;10.60;99.90;;;;;;5051517;28;39336;-77
2022/03/02 11:05:29;;;;;;;22.10;14.60;;;10.50;99.90;;;;;;5061033;28;38737;-77
2022/03/02 11:07:56;;;;;;;21.43;14.47;;;10.50;99.90;;;;;;5045642;28;38944;-79
2022/03/02 11:10:33;;;;;;;22.97;14.83;;;10.70;99.90;;;;;;5043928;28;39134;-78
2022/03/02 11:13:11;;;;;;;22.80;14.15;;;10.70;99.90;;;;;;5068372;28;39008;-77
2022/03/02 11:15:52;;;;;;;21.57;14.73;;;10.80;99.90;;;;;;5062094;28;48351;-76
2022/03/02 11:18:31;;;;;;;25.95;15.02;;;10.90;99.90;;;;;;5065198;28;38121;-76
2022/03/02 11:21:04;;;;;;;24.73;15.60;;;11.00;99.90;;;;;;5044913;28;39309;-76
2022/03/02 11:23:44;;;;;;;24.60;14.18;;;11.10;99.90;;;;;;5039789;28;47037;-77
2022/03/02 11:26:14;;;;;;;23.83;15.75;;;11.20;99.90;;;;;;5063096;28;39063;-76
2022/03/02 11:28:51;;;;;;;22.88;15.05;;;11.30;99.90;;;;;;5060091;28;41235;-77
2022/03/02 11:31:27;;;;;;;27.02;15.15;;;11.20;99.90;;;;;;5064150;28;38258;-77
2022/03/02 11:34:13;;;;;;;21.55;14.15;;;11.20;99.90;;;;;;5040059;28;38887;-77
2022/03/02 11:36:44;;;;;;;26.75;15.45;;;11.20;99.90;;;;;;5040618;28;48556;-77
2022/03/02 11:39:11;;;;;;;22.95;13.90;;;11.30;99.90;;;;;;5041974;28;38121;-77
2022/03/02 11:41:40;;;;;;;23.02;14.70;;;11.40;99.90;;;;;;5035032;28;36085;-77
2022/03/02 11:44:32;;;;;;;23.35;14.05;;;11.50;99.90;;;;;;5036736;28;37448;-77
2022/03/02 11:47:00;;;;;;;21.08;13.45;;;11.50;99.90;;;;;;5037320;28;39536;-77
2022/03/02 11:49:50;;;;;;;23.08;14.32;;;11.60;99.90;;;;;;5018536;28;41542;-77
2022/03/02 11:52:20;;;;;;;22.17;14.57;;;11.70;99.90;;;;;;5036242;28;38269;-77
2022/03/02 11:54:51;;;;;;;21.83;13.77;;;11.40;99.90;;;;;;5040683;28;39435;-78
2022/03/02 11:57:19;;;;;;;19.25;13.45;;;11.40;99.90;;;;;;5015511;28;36737;-77
2022/03/02 11:59:46;;;;;;;21.10;14.38;;;11.50;99.90;;;;;;5024591;28;38295;-78
2022/03/02 12:02:18;;;;;;;20.70;14.23;;;11.50;99.90;;;;;;5039079;28;37287;-77
2022/03/02 12:04:58;;;;;;;21.13;13.95;;;11.40;99.90;;;;;;5020367;28;38324;-78
2022/03/02 12:07:25;;;;;;;22.90;14.15;;;11.60;99.90;;;;;;5025311;28;39571;-77
2022/03/02 12:09:51;;;;;;;19.80;13.73;;;11.80;99.90;;;;;;5022635;28;40179;-76
2022/03/02 12:12:21;;;;;;;21.80;13.40;;;11.70;99.90;;;;;;5035129;28;37055;-77
2022/03/02 12:14:53;;;;;;;21.00;13.95;;;11.50;99.90;;;;;;5022257;28;37929;-77
2022/03/02 12:17:21;;;;;;;22.55;14.35;;;11.40;99.90;;;;;;5034450;28;39792;-77
2022/03/02 12:19:51;;;;;;;23.00;13.57;;;11.40;99.90;;;;;;5027876;28;37222;-78
2022/03/02 12:22:17;;;;;;;19.55;13.25;;;11.40;99.90;;;;;;5034660;28;37668;-79
2022/03/02 12:24:46;;;;;;;20.85;14.48;;;11.30;99.90;;;;;;5043546;28;38494;-77
2022/03/02 12:27:13;;;;;;;21.80;13.73;;;11.40;99.90;;;;;;5043527;28;39353;-77
2022/03/02 12:29:41;;;;;;;20.08;13.57;;;11.40;99.90;;;;;;5037029;28;38976;-78
2022/03/02 12:32:15;;;;;;;18.67;13.02;;;11.40;99.90;;;;;;5044187;28;37470;-77
2022/03/02 12:34:44;;;;;;;22.13;14.25;;;11.40;99.90;;;;;;5057212;28;38669;-78
2022/03/02 12:37:12;;;;;;;16.90;12.85;;;11.50;99.90;;;;;;5061158;28;39140;-79
2022/03/02 12:39:40;;;;;;;20.48;14.10;;;11.70;99.90;;;;;;5048430;28;38618;-78
2022/03/02 12:42:09;;;;;;;22.67;13.63;;;11.90;99.90;;;;;;5048753;28;38550;-78
2022/03/02 12:44:37;;;;;;;23.13;12.55;;;12.00;99.90;;;;;;5060312;28;40622;-78